Cades, SC (29518)

12:37 AM EDT on April 28, 2015 (GMT -0400)
Williamsburg County | | Change Station
CLOSE
Current Station
Airport
Location: Kingstree,
Elevation: 66 ft
Nearby Weather Stations
Active Advisory: Flood Warning

Elev 66 ft 33.72 °N, 79.86 °W | Updated 22 minutes ago

Clear
Clear
61 °F
Feels Like 61 °F
N
4
Wind Variable Wind from North

Today
High -- | Low -- °F
--% Chance of Precip.
Yesterday
High -- | Low -- °F
Precip. -- in
6:33 AM 8:00 PM
Waxing Gibbous, 70% visible
Pressure 29.91 in
Visibility 10.0 miles
Clouds Clear
Dew Point 52 °F
Humidity 72%
Rainfall 0.00 in
Snow Depth Not available.
UV 0 out of 12
Pollen 8.80 out of 12
Air Quality Not available.
Flu Activity Local Activity
METAR KCKI 280415Z AUTO 01003KT 10SM CLR 16/11 A2991 RMK AO2

More Conditions Fewer Conditions

Pressure 29.91 in
Visibility 10.0 miles
Clouds Clear
Dew Point 52 °F
Humidity 72%
Rainfall 0.00 in
Snow Depth Not available.
UV 0 out of 12
Pollen 8.80 out of 12
Air Quality Not available.
Flu Activity Local Activity
METAR KCKI 280415Z AUTO 01003KT 10SM CLR 16/11 A2991 RMK AO2

More Conditions Fewer Conditions

10-Day Weather Forecast

Almanac

Astronomy

Apr. 28, 2015 Rise Set
Actual Time
Civil Twilight
Nautical Twilight
Astronomical Twilight
Moon
Length of Visible Light
Length of Day
Tomorrow will be .
, % of the Moon is Illuminated

Today's Extremes

State Highs State Lows

Community

WunderPhotos

Upload Photos

1,817,582 photos uploaded!

WunderBlogs® & News

Nearby

Air Quality

  Air Quality AQ Index Pollutant
Not available.

Snow Depth

Station Depth Elevation

Earthquake Activity

City Distance Mag. Time & Date
Minimum magnitude displayed is 2.5.

Coastal Water Temperatures

Place Temperature

Stations

Nearby Weather Stations

Station Location Temp. Windchill Dew Point Humidity Wind Precip. Elev Updated Type
                   
Flood Warning
Statement as of 9:35 PM EDT on April 27, 2015

The Flood Warning continues for
the Santee river near Jamestown.
* At 8 PM Monday the stage was 12.9 feet.
* Flood stage is 10.0 feet.
* Minor flooding is occurring.
* Forecast, the river will rise to near 13.0 feet by Thursday morning
then begin a slow fall.
* At 12.0 feet, several dirt logging roads become impassable.


Lat... Lon 3347 8002 3354 7998 3335 7969 3327 7946
          3320 7951 3329 7976